LFRS/NTE METAR and TAF weather

Enter ICAO airport designator
Station Type Date Time Source
LFRS METAR 2019/02/21 11:30 UTC NOAA

LFRS 211130Z AUTO 06004KT 020V080 1200 0800 R03/1400U R21/1100N BCFG VV/// 07/07 Q1029 BECMG CAVOK


Station Type Date Time Source
LFRS Decoded METAR 2019/02/21 11:30 UTC NOAA

Nantes, France (LFRS) 47-10N 001-36W 27M
Feb 21, 2019 - 06:30 AM EST / 2019.02.21 1130 UTC
Wind: from the ENE (060 degrees) at 5 MPH (4 KT) (direction variable):0
Visibility: less than 1 mile:0
Sky conditions: obscured
Weather: patches of fog
Temperature: 44 F (7 C)
Dew Point: 44 F (7 C)
Relative Humidity: 100%
Pressure (altimeter): 30.39 in. Hg (1029 hPa)
ob: LFRS 211130Z AUTO 06004KT 020V080 1200 0800 R03/1400U R21/1100N BCFG VV/// 07/07 Q1029 BECMG CAVOK
cycle: 11

Station Type Date Time Source
LFRS TAF 2019/02/21 12:21 UTC NOAA

TAF LFRS 211100Z 2112/2218 12005KT 4000 BR BKN004
BECMG 2112/2113 9999 NSW FEW005
BECMG 2120/2122 3000 BR
TEMPO 2200/2208 0800 BCFG PROB40
TEMPO 2200/2206 0400 FG VV///
BECMG 2208/2210 9999 NSW


Example: see airport list